createdAt,value
2022-09-15T00:01:07.468Z,8.15
2022-09-15T00:03:34.898Z,5.30
2022-09-15T00:06:02.050Z,6.05
2022-09-15T00:08:29.272Z,8.07
2022-09-15T00:11:18.297Z,6.45
2022-09-15T00:13:45.370Z,5.05
2022-09-15T00:16:15.232Z,4.68
2022-09-15T00:18:43.389Z,5.53
2022-09-15T00:21:13.880Z,5.78
2022-09-15T00:23:40.923Z,8.38
2022-09-15T00:26:10.107Z,5.13
2022-09-15T00:28:37.457Z,7.28
2022-09-15T00:31:09.883Z,6.53
2022-09-15T00:33:37.118Z,7.65
2022-09-15T00:36:07.491Z,6.03
2022-09-15T00:38:35.989Z,5.82
2022-09-15T00:41:03.800Z,6.03
2022-09-15T00:43:45.314Z,5.30
2022-09-15T00:46:13.217Z,5.68
2022-09-15T00:48:45.564Z,8.40
2022-09-15T00:51:16.860Z,5.80
2022-09-15T00:53:46.327Z,4.63
2022-09-15T00:56:15.116Z,3.45
2022-09-15T00:58:57.978Z,4.35
2022-09-15T01:01:27.744Z,3.92
2022-09-15T01:03:55.397Z,5.05
2022-09-15T01:06:35.570Z,4.00
2022-09-15T01:09:42.660Z,4.63
2022-09-15T01:12:09.444Z,3.58
2022-09-15T01:14:36.280Z,4.28
2022-09-15T01:17:15.413Z,8.38
2022-09-15T01:19:42.181Z,3.65
2022-09-15T01:22:36.842Z,6.97
2022-09-15T01:25:35.280Z,3.83
2022-09-15T01:28:20.842Z,4.95
2022-09-15T01:31:03.270Z,8.05
2022-09-15T01:33:48.594Z,5.35
2022-09-15T01:36:49.204Z,5.38
2022-09-15T01:39:28.436Z,4.53
2022-09-15T01:41:59.770Z,6.75
2022-09-15T01:44:41.069Z,5.50
2022-09-15T01:47:12.070Z,6.07
2022-09-15T01:49:54.437Z,4.18
2022-09-15T01:52:23.598Z,4.25
2022-09-15T01:55:00.426Z,3.97
2022-09-15T01:57:28.014Z,4.50
2022-09-15T01:59:56.183Z,3.65
2022-09-15T02:02:31.265Z,3.97
2022-09-15T02:05:01.020Z,5.68
2022-09-15T02:07:47.520Z,7.72
2022-09-15T02:10:22.073Z,4.22
2022-09-15T02:13:06.253Z,4.30
2022-09-15T02:15:48.080Z,4.70
2022-09-15T02:18:38.491Z,4.57
2022-09-15T02:21:40.852Z,3.80
2022-09-15T02:24:21.040Z,4.72
2022-09-15T02:26:51.349Z,6.18
2022-09-15T02:29:21.461Z,4.50
2022-09-15T02:31:52.585Z,4.35
2022-09-15T02:34:31.679Z,5.70
2022-09-15T02:36:59.533Z,4.57
2022-09-15T02:39:33.151Z,4.55
2022-09-15T02:42:02.350Z,4.30
2022-09-15T02:44:33.066Z,4.38
2022-09-15T02:47:01.993Z,5.68
2022-09-15T02:49:28.856Z,4.32
2022-09-15T02:51:55.795Z,4.18
2022-09-15T02:54:22.526Z,4.03
2022-09-15T02:56:49.307Z,4.30
2022-09-15T02:59:16.094Z,5.53
2022-09-15T03:01:42.919Z,5.20
2022-09-15T03:04:09.725Z,4.10
2022-09-15T03:06:36.544Z,4.32
2022-09-15T03:09:07.985Z,5.15
2022-09-15T03:11:36.107Z,4.22
2022-09-15T03:14:05.744Z,5.65
2022-09-15T03:16:34.908Z,4.13
2022-09-15T03:19:02.923Z,4.57
2022-09-15T03:21:30.336Z,4.45
2022-09-15T03:23:58.537Z,3.85
2022-09-15T03:26:25.579Z,4.53
2022-09-15T03:28:52.490Z,5.10
2022-09-15T03:31:19.875Z,4.50
2022-09-15T03:33:47.202Z,6.93
2022-09-15T03:36:14.074Z,5.10
2022-09-15T03:38:40.925Z,8.02
2022-09-15T03:41:11.702Z,6.05
2022-09-15T03:43:38.997Z,3.60
2022-09-15T03:46:07.695Z,4.43
2022-09-15T03:48:36.552Z,3.28
2022-09-15T03:51:07.625Z,2.63
2022-09-15T03:53:36.082Z,3.92
2022-09-15T03:56:27.748Z,3.92
2022-09-15T03:58:54.804Z,2.75
2022-09-15T04:01:34.536Z,2.65
2022-09-15T04:04:08.451Z,2.75
2022-09-15T04:06:35.797Z,4.95
2022-09-15T04:09:03.129Z,2.88
2022-09-15T04:11:32.646Z,5.93
2022-09-15T04:13:59.822Z,3.75
2022-09-15T04:16:30.419Z,3.53
2022-09-15T04:18:57.744Z,2.45
2022-09-15T04:21:26.763Z,4.13
2022-09-15T04:23:54.208Z,4.43
2022-09-15T04:26:22.995Z,4.32
2022-09-15T04:28:50.224Z,2.40
2022-09-15T04:31:17.871Z,4.45
2022-09-15T04:33:45.525Z,3.88
2022-09-15T04:36:15.678Z,6.80
2022-09-15T04:38:42.763Z,2.72
2022-09-15T04:41:10.893Z,2.80
2022-09-15T04:43:38.195Z,2.50
2022-09-15T04:46:08.998Z,2.97
2022-09-15T04:48:42.719Z,2.80
2022-09-15T04:51:14.004Z,3.03
2022-09-15T04:53:43.694Z,5.57
2022-09-15T04:56:25.864Z,3.72
2022-09-15T04:59:02.714Z,2.22
2022-09-15T05:01:41.223Z,2.58
2022-09-15T05:04:09.110Z,4.10
2022-09-15T05:06:38.607Z,2.97
2022-09-15T05:09:11.551Z,3.17
2022-09-15T05:11:40.655Z,5.75
2022-09-15T05:14:09.677Z,4.05
2022-09-15T05:16:36.886Z,4.32
2022-09-15T05:19:04.776Z,3.40
2022-09-15T05:21:32.048Z,2.60
2022-09-15T05:23:58.803Z,2.90
2022-09-15T05:26:29.802Z,3.38
2022-09-15T05:28:57.779Z,3.17
2022-09-15T05:31:27.398Z,4.53
2022-09-15T05:33:54.745Z,2.83
2022-09-15T05:36:25.339Z,3.20
2022-09-15T05:38:59.156Z,5.43
2022-09-15T05:41:27.181Z,4.97
2022-09-15T05:43:57.110Z,2.25
2022-09-15T05:46:26.233Z,6.85
2022-09-15T05:48:55.574Z,2.17
2022-09-15T05:51:22.667Z,1.00
2022-09-15T05:53:49.905Z,2.40
2022-09-15T05:56:17.484Z,1.40
2022-09-15T05:58:46.496Z,0.73
2022-09-15T06:01:19.677Z,0.60
2022-09-15T06:03:47.609Z,1.33
2022-09-15T06:06:15.077Z,2.42
2022-09-15T06:08:50.038Z,3.85
2022-09-15T06:11:21.370Z,1.08
2022-09-15T06:13:49.038Z,0.60
2022-09-15T06:16:22.054Z,1.65
2022-09-15T06:18:51.081Z,1.13
2022-09-15T06:21:23.016Z,0.70
2022-09-15T06:23:57.810Z,1.00
2022-09-15T06:26:26.191Z,1.50
2022-09-15T06:28:52.979Z,3.22
2022-09-15T06:31:20.082Z,0.90
2022-09-15T06:33:51.295Z,1.90
2022-09-15T06:36:23.194Z,0.93
2022-09-15T06:38:50.008Z,0.60
2022-09-15T06:41:16.799Z,1.85
2022-09-15T06:43:44.409Z,1.35
2022-09-15T06:46:16.944Z,0.68
2022-09-15T06:48:47.520Z,2.33
2022-09-15T06:51:17.963Z,0.98
2022-09-15T06:53:45.583Z,1.00
2022-09-15T06:56:18.601Z,1.30
2022-09-15T06:58:46.447Z,3.20
2022-09-15T07:01:25.393Z,3.20
2022-09-15T07:03:52.807Z,1.38
2022-09-15T07:06:20.176Z,0.68
2022-09-15T07:08:47.345Z,0.70
2022-09-15T07:11:18.376Z,1.27
2022-09-15T07:13:45.412Z,1.23
2022-09-15T07:16:13.428Z,0.80
2022-09-15T07:18:43.295Z,1.13
2022-09-15T07:21:18.543Z,0.80
2022-09-15T07:23:45.758Z,0.60
2022-09-15T07:26:27.136Z,1.33
2022-09-15T07:28:59.575Z,1.23
2022-09-15T07:31:29.074Z,1.00
2022-09-15T07:33:55.942Z,0.45
2022-09-15T07:36:22.894Z,0.90
2022-09-15T07:38:52.956Z,0.60
2022-09-15T07:41:22.806Z,1.77
2022-09-15T07:43:55.087Z,0.80
2022-09-15T07:46:23.456Z,2.72
2022-09-15T07:48:52.088Z,0.73
2022-09-15T07:51:19.419Z,0.80
2022-09-15T07:53:47.765Z,1.33
2022-09-15T07:56:15.453Z,1.08
2022-09-15T07:58:42.260Z,1.55
2022-09-15T08:01:16.866Z,2.53
2022-09-15T08:03:49.090Z,2.72
2022-09-15T08:06:21.593Z,1.60
2022-09-15T08:09:00.807Z,1.02
2022-09-15T08:11:28.807Z,2.15
2022-09-15T08:13:55.660Z,1.40
2022-09-15T08:16:24.293Z,1.10
2022-09-15T08:18:53.671Z,1.77
2022-09-15T08:21:21.965Z,1.63
2022-09-15T08:23:56.992Z,3.72
2022-09-15T08:26:25.375Z,2.42
2022-09-15T08:28:53.062Z,1.90
2022-09-15T08:31:20.090Z,2.92
2022-09-15T08:33:51.880Z,2.45
2022-09-15T08:36:18.777Z,3.50
2022-09-15T08:38:46.521Z,4.68
2022-09-15T08:41:19.110Z,3.13
2022-09-15T08:44:32.288Z,4.13
2022-09-15T08:47:27.710Z,2.70
2022-09-15T08:50:07.958Z,3.15
2022-09-15T08:52:37.909Z,2.67
2022-09-15T08:55:17.847Z,5.75
2022-09-15T08:57:45.100Z,4.18
2022-09-15T09:00:16.797Z,3.05
2022-09-15T09:02:52.976Z,3.90
2022-09-15T09:05:19.778Z,2.55
2022-09-15T09:08:11.823Z,2.78
2022-09-15T09:10:53.397Z,5.53
2022-09-15T09:13:43.941Z,2.63
2022-09-15T09:16:42.458Z,2.50
2022-09-15T09:19:37.609Z,2.80
2022-09-15T09:22:13.937Z,3.85
2022-09-15T09:24:51.573Z,4.30
2022-09-15T09:27:23.954Z,4.15
2022-09-15T09:30:02.509Z,6.35
2022-09-15T09:33:03.902Z,3.58
2022-09-15T09:35:51.755Z,2.78
2022-09-15T09:38:26.468Z,4.97
2022-09-15T09:40:53.500Z,4.63
2022-09-15T09:43:20.619Z,2.83
2022-09-15T09:45:47.468Z,5.47
2022-09-15T09:48:21.074Z,4.13
2022-09-15T09:50:50.589Z,3.08
2022-09-15T09:53:33.460Z,5.18
2022-09-15T09:56:17.714Z,6.05
2022-09-15T09:58:45.229Z,4.10
2022-09-15T10:01:15.175Z,4.63
2022-09-15T10:03:43.364Z,4.50
2022-09-15T10:06:20.621Z,3.45
2022-09-15T10:09:05.521Z,4.18
2022-09-15T10:12:00.108Z,4.65
2022-09-15T10:14:32.892Z,4.50
2022-09-15T10:17:07.421Z,4.95
2022-09-15T10:19:44.248Z,5.82
2022-09-15T10:22:31.396Z,6.35
2022-09-15T10:25:01.012Z,5.53
2022-09-15T10:27:38.817Z,6.85
2022-09-15T10:30:20.759Z,4.57
2022-09-15T10:32:48.887Z,5.35
2022-09-15T10:35:22.691Z,5.88
2022-09-15T10:37:56.805Z,6.55
2022-09-15T10:40:42.174Z,5.20
2022-09-15T10:43:23.311Z,5.95
2022-09-15T10:46:14.275Z,4.97
2022-09-15T10:49:00.708Z,4.15
2022-09-15T10:51:49.676Z,3.80
2022-09-15T10:54:39.456Z,6.47
2022-09-15T10:57:30.071Z,7.75
2022-09-15T11:00:10.477Z,3.83
2022-09-15T11:03:07.003Z,4.40
2022-09-15T11:09:00.131Z,5.97
2022-09-15T11:12:03.226Z,5.68
2022-09-15T11:14:46.453Z,4.53
2022-09-15T11:17:49.216Z,4.43
2022-09-15T11:20:18.339Z,4.35
2022-09-15T11:22:53.318Z,3.83
2022-09-15T11:25:28.455Z,4.45
2022-09-15T11:28:04.908Z,5.10
2022-09-15T11:30:52.375Z,4.28
2022-09-15T11:33:25.576Z,5.90
2022-09-15T11:37:00.383Z,4.60
2022-09-15T11:39:45.167Z,5.53
2022-09-15T11:42:19.302Z,9.23
2022-09-15T11:44:48.840Z,4.22
2022-09-15T11:47:20.760Z,2.42
2022-09-15T11:50:12.070Z,7.28
2022-09-15T11:53:20.591Z,4.70
2022-09-15T11:56:25.020Z,4.85
2022-09-15T11:59:30.313Z,2.13
2022-09-15T12:02:19.154Z,7.00
2022-09-15T12:05:14.121Z,4.15
2022-09-15T12:07:52.640Z,4.82
2022-09-15T12:10:42.981Z,7.47
2022-09-15T12:13:24.067Z,3.95
2022-09-15T12:15:57.829Z,5.80
2022-09-15T12:18:40.768Z,6.75
2022-09-15T12:21:35.148Z,6.07
2022-09-15T12:24:16.718Z,5.22
2022-09-15T12:26:46.927Z,5.47
2022-09-15T12:29:26.383Z,4.32
2022-09-15T12:32:19.011Z,5.35
2022-09-15T12:35:34.925Z,3.72
2022-09-15T12:38:14.034Z,1.90
2022-09-15T12:40:41.798Z,4.47
2022-09-15T12:43:12.683Z,3.65
2022-09-15T12:45:42.937Z,4.00
2022-09-15T12:48:24.687Z,5.13
2022-09-15T12:51:02.274Z,7.25
2022-09-15T12:53:30.581Z,2.97
2022-09-15T12:56:07.238Z,4.75
2022-09-15T12:58:49.649Z,4.60
2022-09-15T13:01:19.734Z,1.83
2022-09-15T13:03:47.469Z,1.63
2022-09-15T13:06:19.297Z,3.47
2022-09-15T13:09:05.589Z,3.17
2022-09-15T13:11:34.394Z,3.28
2022-09-15T13:14:04.331Z,2.45
2022-09-15T13:16:33.878Z,1.45
2022-09-15T13:19:29.644Z,3.30
2022-09-15T13:22:11.730Z,2.58
2022-09-15T13:25:02.042Z,2.33
2022-09-15T13:27:50.651Z,2.17
2022-09-15T13:30:49.339Z,2.10
2022-09-15T13:40:10.833Z,3.65
2022-09-15T13:42:40.653Z,4.45
2022-09-15T13:45:07.469Z,3.92
2022-09-15T13:48:02.276Z,1.63
2022-09-15T13:51:02.059Z,2.83
2022-09-15T13:53:47.452Z,2.40
2022-09-15T13:56:25.785Z,3.05
2022-09-15T13:58:54.705Z,3.33
2022-09-15T14:01:25.278Z,2.55
2022-09-15T14:03:55.282Z,4.32
2022-09-15T14:06:30.377Z,3.25
2022-09-15T14:09:02.058Z,3.00
2022-09-15T14:11:32.350Z,2.28
2022-09-15T14:14:00.675Z,2.45
2022-09-15T14:16:27.961Z,2.17
2022-09-15T14:18:57.785Z,1.77
2022-09-15T14:21:30.616Z,2.45
2022-09-15T14:24:02.570Z,2.33
2022-09-15T14:26:30.708Z,2.55
2022-09-15T14:28:59.970Z,3.47
2022-09-15T14:31:34.778Z,4.65
2022-09-15T14:34:04.975Z,1.95
2022-09-15T14:36:33.934Z,2.40
2022-09-15T14:39:21.498Z,1.73
2022-09-15T14:41:50.084Z,1.60
2022-09-15T14:47:27.940Z,2.55
2022-09-15T14:50:15.168Z,2.05
2022-09-15T14:52:43.429Z,4.28
2022-09-15T14:55:15.914Z,2.95
2022-09-15T14:57:48.861Z,3.83
2022-09-15T15:00:21.268Z,3.40
2022-09-15T15:02:54.863Z,3.13
2022-09-15T15:05:30.414Z,3.63
2022-09-15T15:07:57.826Z,2.53
2022-09-15T15:10:34.858Z,2.58
2022-09-15T15:13:08.968Z,3.15
2022-09-15T15:15:38.784Z,2.97
2022-09-15T15:18:31.539Z,6.38
2022-09-15T15:20:59.187Z,2.58
2022-09-15T15:23:26.720Z,2.90
2022-09-15T15:25:54.084Z,2.33
2022-09-15T15:28:39.344Z,3.72
2022-09-15T15:31:24.061Z,4.47
2022-09-15T15:34:05.071Z,3.40
2022-09-15T15:36:34.873Z,5.05
2022-09-15T15:39:05.220Z,3.67
2022-09-15T15:41:41.667Z,3.22
2022-09-15T15:44:27.629Z,2.83
2022-09-15T15:47:02.957Z,2.50
2022-09-15T15:49:32.520Z,2.83
2022-09-15T15:52:01.207Z,4.20
2022-09-15T15:54:28.107Z,3.85
2022-09-15T15:56:55.445Z,4.80
2022-09-15T15:59:22.258Z,1.70
2022-09-15T16:01:52.896Z,3.97
2022-09-15T16:04:19.976Z,3.70
2022-09-15T16:06:47.679Z,2.40
2022-09-15T16:09:17.242Z,3.42
2022-09-15T16:11:44.138Z,3.38
2022-09-15T16:14:13.661Z,4.30
2022-09-15T16:16:40.927Z,4.35
2022-09-15T16:19:08.651Z,3.65
2022-09-15T16:21:39.730Z,3.83
2022-09-15T16:24:11.781Z,2.55
2022-09-15T16:26:39.414Z,4.72
2022-09-15T16:29:06.685Z,3.08
2022-09-15T16:31:34.739Z,1.80
2022-09-15T16:34:01.647Z,3.42
2022-09-15T16:36:29.132Z,4.25
2022-09-15T16:38:55.899Z,2.83
2022-09-15T16:41:26.149Z,3.22
2022-09-15T16:43:58.696Z,2.80
2022-09-15T16:46:25.618Z,2.78
2022-09-15T16:48:52.403Z,3.45
2022-09-15T16:51:28.723Z,2.53
2022-09-15T16:53:57.575Z,5.72
2022-09-15T16:56:24.363Z,4.32
2022-09-15T16:58:58.807Z,6.18
2022-09-15T17:01:26.919Z,3.70
2022-09-15T17:03:53.716Z,5.00
2022-09-15T17:06:22.302Z,3.65
2022-09-15T17:08:50.247Z,6.55
2022-09-15T17:11:19.489Z,6.30
2022-09-15T17:13:46.988Z,4.93
2022-09-15T17:16:17.626Z,3.80
2022-09-15T17:18:44.892Z,3.70
2022-09-15T17:21:12.629Z,4.03
2022-09-15T17:23:44.628Z,4.72
2022-09-15T17:26:14.089Z,4.40
2022-09-15T17:28:42.218Z,3.05
2022-09-15T17:31:18.532Z,4.45
2022-09-15T17:33:46.175Z,6.05
2022-09-15T17:36:13.281Z,5.78
2022-09-15T17:38:44.850Z,5.80
2022-09-15T17:41:22.457Z,8.52
2022-09-15T17:43:49.581Z,4.03
2022-09-15T17:46:16.400Z,3.17
2022-09-15T17:48:43.349Z,4.35
2022-09-15T17:51:15.234Z,3.50
2022-09-15T17:53:42.600Z,3.88
2022-09-15T17:56:09.450Z,2.45
2022-09-15T17:58:36.324Z,5.53
2022-09-15T18:01:04.189Z,1.80
2022-09-15T18:03:36.576Z,5.35
2022-09-15T18:06:06.485Z,4.10
2022-09-15T18:08:34.362Z,2.80
2022-09-15T18:11:02.747Z,4.32
2022-09-15T18:13:30.331Z,3.90
2022-09-15T18:15:58.414Z,4.35
2022-09-15T18:18:27.415Z,5.07
2022-09-15T18:20:57.798Z,3.87
2022-09-15T18:23:26.934Z,3.45
2022-09-15T18:25:53.770Z,4.27
2022-09-15T18:28:20.589Z,6.83
2022-09-15T18:30:49.845Z,9.33
2022-09-15T18:33:21.075Z,7.33
2022-09-15T18:35:59.214Z,4.97
2022-09-15T18:38:26.551Z,4.57
2022-09-15T18:40:56.977Z,4.10
2022-09-15T18:43:26.632Z,3.13
2022-09-15T18:45:59.454Z,2.90
2022-09-15T18:48:27.381Z,3.00
2022-09-15T18:50:55.141Z,3.90
2022-09-15T18:53:32.198Z,4.27
2022-09-15T18:55:59.529Z,6.90
2022-09-15T18:58:27.311Z,3.93
2022-09-15T19:01:00.101Z,4.77
2022-09-15T19:03:27.612Z,4.47
2022-09-15T19:05:56.173Z,6.33
2022-09-15T19:08:23.410Z,8.60
2022-09-15T19:10:58.345Z,5.83
2022-09-15T19:13:25.920Z,5.77
2022-09-15T19:15:53.659Z,5.97
2022-09-15T19:18:23.023Z,4.97
2022-09-15T19:20:50.143Z,6.10
2022-09-15T19:23:17.122Z,6.93
2022-09-15T19:25:43.917Z,4.40
2022-09-15T19:28:10.739Z,5.63
2022-09-15T19:30:37.597Z,5.13
2022-09-15T19:33:05.580Z,6.23
2022-09-15T19:35:32.399Z,5.10
2022-09-15T19:37:59.337Z,8.33
2022-09-15T19:40:26.301Z,5.60
2022-09-15T19:42:53.152Z,7.33
2022-09-15T19:45:19.973Z,4.80
2022-09-15T19:47:46.858Z,7.17
2022-09-15T19:50:13.617Z,4.57
2022-09-15T19:52:40.419Z,6.43
2022-09-15T19:55:09.652Z,5.60
2022-09-15T19:57:40.917Z,4.33
2022-09-15T20:00:10.341Z,5.60
2022-09-15T20:02:37.205Z,4.83
2022-09-15T20:05:04.930Z,5.57
2022-09-15T20:07:32.524Z,9.30
2022-09-15T20:09:59.312Z,5.40
2022-09-15T20:12:26.760Z,6.43
2022-09-15T20:14:53.564Z,5.50
2022-09-15T20:17:20.368Z,5.03
2022-09-15T20:19:47.228Z,7.90
2022-09-15T20:22:14.202Z,5.17
2022-09-15T20:24:40.968Z,4.93
2022-09-15T20:27:08.928Z,4.80
2022-09-15T20:29:35.773Z,5.87
2022-09-15T20:32:02.688Z,3.83
2022-09-15T20:34:29.499Z,6.10
2022-09-15T20:36:56.380Z,5.17
2022-09-15T20:39:23.687Z,7.83
2022-09-15T20:41:50.545Z,6.83
2022-09-15T20:44:17.361Z,6.60
2022-09-15T20:46:44.325Z,6.53
2022-09-15T20:49:11.399Z,6.00
2022-09-15T20:51:38.606Z,5.47
2022-09-15T20:54:05.921Z,4.97
2022-09-15T20:56:35.236Z,6.87
2022-09-15T20:59:03.715Z,6.63
2022-09-15T21:01:36.798Z,5.63
2022-09-15T21:04:08.704Z,9.27
2022-09-15T21:06:35.965Z,7.27
2022-09-15T21:09:03.926Z,6.57
2022-09-15T21:11:31.018Z,5.43
2022-09-15T21:13:58.839Z,11.67
2022-09-15T21:16:28.213Z,5.20
2022-09-15T21:18:56.892Z,6.90
2022-09-15T21:21:30.082Z,8.50
2022-09-15T21:24:01.252Z,9.70
2022-09-15T21:26:58.294Z,5.20
2022-09-15T21:29:27.811Z,5.13
2022-09-15T21:31:57.995Z,7.97
2022-09-15T21:34:24.964Z,5.90
2022-09-15T21:36:53.545Z,4.67
2022-09-15T21:39:21.317Z,6.00
2022-09-15T21:41:48.191Z,7.90
2022-09-15T21:44:15.197Z,4.57
2022-09-15T21:46:42.031Z,4.87
2022-09-15T21:49:09.102Z,5.90
2022-09-15T21:51:36.317Z,4.73
2022-09-15T21:54:06.318Z,8.87
2022-09-15T21:56:33.497Z,5.80
2022-09-15T21:59:02.365Z,8.80
2022-09-15T22:01:31.915Z,6.60
2022-09-15T22:04:04.836Z,5.30
2022-09-15T22:06:36.992Z,5.93
2022-09-15T22:09:07.143Z,6.13
2022-09-15T22:11:34.731Z,7.97
2022-09-15T22:14:03.155Z,6.50
2022-09-15T22:16:30.537Z,5.90
2022-09-15T22:18:57.559Z,6.03
2022-09-15T22:21:31.461Z,11.60
2022-09-15T22:23:59.365Z,6.97
2022-09-15T22:26:29.866Z,7.23
2022-09-15T22:28:58.432Z,7.07
2022-09-15T22:31:26.535Z,6.67
2022-09-15T22:33:53.808Z,8.00
2022-09-15T22:36:27.944Z,6.30
2022-09-15T22:38:56.439Z,10.03
2022-09-15T22:41:25.889Z,8.77
2022-09-15T22:43:52.867Z,7.00
2022-09-15T22:46:20.543Z,7.23
2022-09-15T22:48:47.455Z,9.53
2022-09-15T22:51:14.912Z,7.17
2022-09-15T22:53:41.771Z,7.43
2022-09-15T22:56:20.863Z,9.47
2022-09-15T22:58:49.315Z,9.53
2022-09-15T23:01:19.018Z,10.13
2022-09-15T23:03:56.578Z,9.00
2022-09-15T23:06:24.990Z,8.67
2022-09-15T23:08:57.495Z,8.47
2022-09-15T23:11:26.153Z,12.27
2022-09-15T23:13:53.338Z,10.37
2022-09-15T23:16:20.726Z,11.30
2022-09-15T23:18:48.318Z,8.97
2022-09-15T23:21:15.281Z,8.57
2022-09-15T23:23:44.396Z,9.87
2022-09-15T23:26:12.460Z,9.13
2022-09-15T23:28:39.731Z,11.80
2022-09-15T23:31:07.486Z,10.03
2022-09-15T23:33:34.757Z,9.50
2022-09-15T23:36:02.742Z,10.67
2022-09-15T23:38:29.957Z,10.40
2022-09-15T23:40:56.970Z,10.20
2022-09-15T23:43:23.934Z,8.97
2022-09-15T23:45:51.369Z,11.20
2022-09-15T23:48:18.532Z,9.27
2022-09-15T23:50:45.846Z,9.37
2022-09-15T23:53:13.127Z,9.47
2022-09-15T23:55:40.088Z,9.97
2022-09-15T23:58:06.867Z,8.50
